createdAt,value
2017-12-11T00:00:51.094Z,0
2017-12-11T00:01:59.918Z,0
2017-12-11T00:03:08.742Z,0
2017-12-11T00:04:17.568Z,0
2017-12-11T00:05:26.441Z,0
2017-12-11T00:06:35.266Z,0
2017-12-11T00:07:44.088Z,0
2017-12-11T00:08:52.915Z,0
2017-12-11T00:10:01.737Z,0
2017-12-11T00:11:10.560Z,0
2017-12-11T00:12:19.392Z,0
2017-12-11T00:13:28.207Z,0
2017-12-11T00:14:37.305Z,0
2017-12-11T00:15:46.130Z,0
2017-12-11T00:16:55.375Z,0
2017-12-11T00:18:04.197Z,0
2017-12-11T00:19:13.019Z,0
2017-12-11T00:20:21.844Z,0
2017-12-11T00:21:30.945Z,0
2017-12-11T00:22:39.929Z,0
2017-12-11T00:23:48.740Z,0
2017-12-11T00:24:57.563Z,0
2017-12-11T00:26:06.386Z,0
2017-12-11T00:27:15.209Z,0
2017-12-11T00:28:24.084Z,0
2017-12-11T00:29:32.909Z,0
2017-12-11T00:30:41.732Z,0
2017-12-11T00:31:50.553Z,0
2017-12-11T00:32:59.648Z,0
2017-12-11T00:34:08.908Z,0
2017-12-11T00:35:17.732Z,0
2017-12-11T00:36:26.556Z,0
2017-12-11T00:37:35.379Z,0
2017-12-11T00:38:44.204Z,0
2017-12-11T00:39:53.228Z,0
2017-12-11T00:41:02.049Z,0
2017-12-11T00:42:10.871Z,0
2017-12-11T00:43:19.695Z,0
2017-12-11T00:44:28.519Z,0
2017-12-11T00:45:37.343Z,0
2017-12-11T00:46:46.166Z,0
2017-12-11T00:47:54.989Z,0
2017-12-11T00:49:03.812Z,0
2017-12-11T00:50:12.640Z,0
2017-12-11T00:51:21.560Z,0
2017-12-11T00:52:30.382Z,0
2017-12-11T00:53:39.206Z,0
2017-12-11T00:54:48.307Z,0
2017-12-11T00:55:57.126Z,0
2017-12-11T00:57:06.048Z,0
2017-12-11T00:58:14.878Z,0
2017-12-11T00:59:23.700Z,0
2017-12-11T01:00:32.524Z,0
2017-12-11T01:01:41.352Z,0
2017-12-11T01:02:50.174Z,0
2017-12-11T01:03:58.997Z,0
2017-12-11T01:05:07.819Z,0
2017-12-11T01:06:16.642Z,0
2017-12-11T01:07:25.741Z,0
2017-12-11T01:08:34.710Z,0
2017-12-11T01:09:43.533Z,0
2017-12-11T01:10:52.358Z,0
2017-12-11T01:12:01.181Z,0
2017-12-11T01:13:10.006Z,0
2017-12-11T01:14:19.099Z,0
2017-12-11T01:15:27.925Z,0
2017-12-11T01:16:37.021Z,0
2017-12-11T01:17:45.895Z,0
2017-12-11T01:18:54.718Z,0
2017-12-11T01:20:03.589Z,0
2017-12-11T01:21:12.424Z,0
2017-12-11T01:22:21.247Z,0
2017-12-11T01:23:30.342Z,0
2017-12-11T01:24:39.566Z,0
2017-12-11T01:25:48.668Z,0
2017-12-11T01:26:57.488Z,0
2017-12-11T01:28:06.314Z,0
2017-12-11T01:29:15.409Z,0
2017-12-11T01:30:24.233Z,0
2017-12-11T01:31:33.055Z,0
2017-12-11T01:32:41.876Z,0
2017-12-11T01:33:50.697Z,0
2017-12-11T01:34:59.522Z,0
2017-12-11T01:36:08.343Z,0
2017-12-11T01:37:17.214Z,0
2017-12-11T01:38:26.036Z,0
2017-12-11T01:39:35.194Z,0
2017-12-11T01:40:44.014Z,0
2017-12-11T01:41:52.837Z,0
2017-12-11T01:43:01.709Z,0
2017-12-11T01:44:10.533Z,0
2017-12-11T01:45:19.630Z,0
2017-12-11T01:46:28.451Z,0
2017-12-11T01:47:37.277Z,0
2017-12-11T01:48:46.524Z,0
2017-12-11T01:49:55.346Z,0
2017-12-11T01:51:04.168Z,0
2017-12-11T01:52:12.992Z,0
2017-12-11T01:53:21.813Z,0
2017-12-11T01:54:30.636Z,0
2017-12-11T01:55:39.740Z,0
2017-12-11T01:56:48.562Z,0
2017-12-11T01:57:57.384Z,0
2017-12-11T01:59:06.751Z,0
2017-12-11T02:00:15.574Z,0
2017-12-11T02:01:24.396Z,0
2017-12-11T02:02:33.220Z,0
2017-12-11T02:03:42.042Z,0
2017-12-11T02:04:51.143Z,0
2017-12-11T02:06:00.065Z,0
2017-12-11T02:07:08.885Z,0
2017-12-11T02:08:17.707Z,0
2017-12-11T02:09:26.804Z,0
2017-12-11T02:10:35.626Z,0
2017-12-11T02:11:44.449Z,0
2017-12-11T02:12:53.271Z,0
2017-12-11T02:14:02.117Z,0
2017-12-11T02:15:11.194Z,0
2017-12-11T02:16:20.015Z,0
2017-12-11T02:17:28.935Z,0
2017-12-11T02:18:37.763Z,0
2017-12-11T02:19:47.134Z,0
2017-12-11T02:20:55.957Z,0
2017-12-11T02:22:04.779Z,0
2017-12-11T02:23:13.650Z,0
2017-12-11T02:24:22.472Z,0
2017-12-11T02:25:31.296Z,0
2017-12-11T02:26:40.120Z,0
2017-12-11T02:27:49.217Z,0
2017-12-11T02:28:58.190Z,0
2017-12-11T02:30:07.010Z,0
2017-12-11T02:31:15.830Z,0
2017-12-11T02:32:24.658Z,0
2017-12-11T02:33:33.478Z,0
2017-12-11T02:34:42.700Z,0
2017-12-11T02:35:51.519Z,0
2017-12-11T02:37:00.621Z,0
2017-12-11T02:38:09.442Z,0
2017-12-11T02:39:18.265Z,0
2017-12-11T02:40:27.391Z,0
2017-12-11T02:41:36.217Z,0
2017-12-11T02:42:45.314Z,0
2017-12-11T02:43:54.421Z,0
2017-12-11T02:45:03.241Z,0
2017-12-11T02:46:12.439Z,0
2017-12-11T02:47:21.537Z,0
2017-12-11T02:48:30.358Z,0
2017-12-11T02:49:39.181Z,0
2017-12-11T02:50:48.280Z,0
2017-12-11T02:51:57.399Z,0
2017-12-11T02:53:06.223Z,0
2017-12-11T02:54:15.047Z,0
2017-12-11T02:55:24.168Z,0
2017-12-11T02:56:32.966Z,0
2017-12-11T02:57:41.839Z,0
2017-12-11T02:58:50.668Z,0
2017-12-11T02:59:59.761Z,0
2017-12-11T03:01:08.579Z,0
2017-12-11T03:02:17.402Z,0
2017-12-11T03:03:26.222Z,0
2017-12-11T03:04:35.044Z,0
2017-12-11T03:05:43.866Z,0
2017-12-11T03:06:52.688Z,0
2017-12-11T03:08:01.511Z,0
2017-12-11T03:09:10.382Z,0
2017-12-11T03:10:19.209Z,0
2017-12-11T03:11:28.026Z,0
2017-12-11T03:12:36.893Z,0
2017-12-11T03:13:45.674Z,0
2017-12-11T03:14:54.924Z,0
2017-12-11T03:16:03.751Z,0
2017-12-11T03:17:12.567Z,0
2017-12-11T03:18:21.390Z,0
2017-12-11T03:19:30.213Z,0
2017-12-11T03:20:39.132Z,0
2017-12-11T03:21:47.953Z,0
2017-12-11T03:22:56.774Z,0
2017-12-11T03:24:05.598Z,0
2017-12-11T03:25:14.419Z,0
2017-12-11T03:26:23.642Z,0
2017-12-11T03:27:32.464Z,0
2017-12-11T03:28:41.286Z,0
2017-12-11T03:29:50.109Z,0
2017-12-11T03:30:58.938Z,0
2017-12-11T03:32:07.908Z,0
2017-12-11T03:33:16.729Z,0
2017-12-11T03:34:25.551Z,0
2017-12-11T03:35:34.374Z,0
2017-12-11T03:36:43.193Z,0
2017-12-11T03:37:52.316Z,0
2017-12-11T03:39:01.408Z,0
2017-12-11T03:40:10.229Z,0
2017-12-11T03:41:19.051Z,0
2017-12-11T03:42:27.869Z,0
2017-12-11T03:43:36.991Z,0
2017-12-11T03:44:45.812Z,0
2017-12-11T03:45:54.636Z,0
2017-12-11T03:47:03.460Z,0
2017-12-11T03:48:12.281Z,0
2017-12-11T03:49:21.103Z,0
2017-12-11T03:50:29.926Z,0
2017-12-11T03:51:38.809Z,0
2017-12-11T03:52:47.572Z,0
2017-12-11T03:53:56.391Z,0
2017-12-11T03:55:05.362Z,0
2017-12-11T03:56:14.185Z,0
2017-12-11T03:57:23.008Z,0
2017-12-11T03:58:31.828Z,0
2017-12-11T03:59:40.926Z,0
2017-12-11T04:00:49.900Z,0
2017-12-11T04:01:58.724Z,0
2017-12-11T04:03:07.548Z,0
2017-12-11T04:04:16.643Z,0
2017-12-11T04:05:25.464Z,0
2017-12-11T04:06:34.537Z,0
2017-12-11T04:07:43.358Z,0
2017-12-11T04:08:52.180Z,0
2017-12-11T04:10:01.003Z,0
2017-12-11T04:11:09.824Z,0
2017-12-11T04:12:18.644Z,0
2017-12-11T04:13:27.467Z,0
2017-12-11T04:14:36.290Z,0
2017-12-11T04:15:45.111Z,0
2017-12-11T04:16:53.932Z,0
2017-12-11T04:18:02.855Z,0
2017-12-11T04:19:11.678Z,0
2017-12-11T04:20:20.502Z,0
2017-12-11T04:21:29.324Z,0
2017-12-11T04:22:38.144Z,0
2017-12-11T04:23:46.966Z,0
2017-12-11T04:24:55.789Z,0
2017-12-11T04:26:04.610Z,0
2017-12-11T04:27:13.704Z,0
2017-12-11T04:28:22.801Z,0
2017-12-11T04:29:32.279Z,0
2017-12-11T04:30:41.101Z,0
2017-12-11T04:31:49.921Z,0
2017-12-11T04:32:58.743Z,0
2017-12-11T04:34:07.841Z,0
2017-12-11T04:35:16.662Z,0
2017-12-11T04:36:25.486Z,0
2017-12-11T04:37:34.307Z,0
2017-12-11T04:38:43.130Z,0
2017-12-11T04:39:51.951Z,0
2017-12-11T04:41:00.824Z,0
2017-12-11T04:42:09.646Z,0
2017-12-11T04:43:18.469Z,0
2017-12-11T04:44:27.288Z,0
2017-12-11T04:45:36.115Z,0
2017-12-11T04:46:44.989Z,0
2017-12-11T04:47:53.808Z,0
2017-12-11T04:49:02.638Z,0
2017-12-11T04:50:11.730Z,0
2017-12-11T04:51:20.825Z,0
2017-12-11T04:52:29.748Z,0
2017-12-11T04:53:38.569Z,0
2017-12-11T04:54:47.391Z,0
2017-12-11T04:55:56.213Z,0
2017-12-11T04:57:05.308Z,0
2017-12-11T04:58:14.180Z,0
2017-12-11T04:59:23.003Z,0
2017-12-11T05:00:31.825Z,0
2017-12-11T05:01:40.648Z,0
2017-12-11T05:02:49.469Z,0
2017-12-11T05:03:58.338Z,0
2017-12-11T05:05:07.442Z,0
2017-12-11T05:06:16.263Z,0
2017-12-11T05:07:25.090Z,0
2017-12-11T05:08:34.180Z,0
2017-12-11T05:09:43.102Z,0
2017-12-11T05:10:51.921Z,0
2017-12-11T05:12:01.024Z,0
2017-12-11T05:13:09.852Z,0
2017-12-11T05:14:18.672Z,0
2017-12-11T05:15:27.545Z,0
2017-12-11T05:16:36.368Z,0
2017-12-11T05:17:45.189Z,0
2017-12-11T05:18:54.009Z,0
2017-12-11T05:20:02.838Z,0
2017-12-11T05:21:11.816Z,0
2017-12-11T05:22:20.635Z,0
2017-12-11T05:23:29.456Z,0
2017-12-11T05:24:38.552Z,0
2017-12-11T05:25:47.376Z,0
2017-12-11T05:26:56.349Z,0
2017-12-11T05:28:05.169Z,0
2017-12-11T05:29:13.994Z,0
2017-12-11T05:30:23.092Z,0
2017-12-11T05:31:32.193Z,0
2017-12-11T05:32:41.016Z,0
2017-12-11T05:33:49.841Z,0
2017-12-11T05:34:58.725Z,0
2017-12-11T05:36:07.488Z,0
2017-12-11T05:37:16.313Z,0
2017-12-11T05:38:25.136Z,0
2017-12-11T05:39:33.961Z,0
2017-12-11T05:40:42.782Z,0
2017-12-11T05:41:51.880Z,0
2017-12-11T05:43:00.701Z,0
2017-12-11T05:44:09.523Z,0
2017-12-11T05:45:18.346Z,0
2017-12-11T05:46:27.169Z,0
2017-12-11T05:47:35.990Z,0
2017-12-11T05:48:44.815Z,0
2017-12-11T05:49:53.913Z,0
2017-12-11T05:51:02.736Z,0
2017-12-11T05:52:11.838Z,0
2017-12-11T05:53:20.660Z,0
2017-12-11T05:54:29.481Z,0
2017-12-11T05:55:38.304Z,0
2017-12-11T05:56:47.128Z,0
2017-12-11T05:57:55.951Z,0
2017-12-11T05:59:04.775Z,0
2017-12-11T06:00:13.604Z,0
2017-12-11T06:01:22.427Z,0
2017-12-11T06:02:31.252Z,0
2017-12-11T06:03:40.077Z,0
2017-12-11T06:04:48.901Z,0
2017-12-11T06:05:58.002Z,0
2017-12-11T06:07:06.821Z,0
2017-12-11T06:08:15.646Z,0
2017-12-11T06:09:24.517Z,0
2017-12-11T06:10:33.342Z,0
2017-12-11T06:11:42.166Z,0
2017-12-11T06:12:50.990Z,0
2017-12-11T06:13:59.814Z,0
2017-12-11T06:15:08.785Z,0
2017-12-11T06:16:17.609Z,0
2017-12-11T06:17:26.432Z,0
2017-12-11T06:18:35.254Z,0
2017-12-11T06:19:44.077Z,0
2017-12-11T06:20:52.899Z,0
2017-12-11T06:22:01.723Z,0
2017-12-11T06:23:10.544Z,0
2017-12-11T06:24:19.642Z,0
2017-12-11T06:25:28.466Z,0
2017-12-11T06:26:37.439Z,0
2017-12-11T06:27:46.539Z,0
2017-12-11T06:28:55.363Z,0
2017-12-11T06:30:04.188Z,0
2017-12-11T06:31:13.009Z,0
2017-12-11T06:32:22.257Z,0
2017-12-11T06:33:31.077Z,0
2017-12-11T06:34:39.905Z,0
2017-12-11T06:35:48.732Z,0
2017-12-11T06:36:57.551Z,0
2017-12-11T06:38:06.674Z,0
2017-12-11T06:39:15.493Z,0
2017-12-11T06:40:24.316Z,0
2017-12-11T06:41:33.140Z,0
2017-12-11T06:42:41.962Z,0
2017-12-11T06:43:51.358Z,0
2017-12-11T06:45:00.182Z,0
2017-12-11T06:46:09.004Z,0
2017-12-11T06:47:17.827Z,0
2017-12-11T06:48:26.656Z,0
2017-12-11T06:49:35.776Z,0
2017-12-11T06:50:44.873Z,0
2017-12-11T06:51:53.694Z,0
2017-12-11T06:53:02.522Z,0
2017-12-11T06:54:11.622Z,0
2017-12-11T06:55:20.493Z,0
2017-12-11T06:56:29.319Z,0
2017-12-11T06:57:38.143Z,0
2017-12-11T06:58:46.965Z,0
2017-12-11T06:59:55.787Z,0
2017-12-11T07:01:04.762Z,0
2017-12-11T07:02:13.587Z,0
2017-12-11T07:03:22.409Z,0
2017-12-11T07:04:31.235Z,0
2017-12-11T07:05:40.057Z,0
2017-12-11T07:06:49.280Z,0
2017-12-11T07:07:58.102Z,0
2017-12-11T07:09:06.926Z,0
2017-12-11T07:10:15.752Z,0
2017-12-11T07:11:24.573Z,0
2017-12-11T07:12:33.547Z,0
2017-12-11T07:13:42.377Z,0
2017-12-11T07:14:51.479Z,0
2017-12-11T07:16:00.304Z,0
2017-12-11T07:17:09.123Z,0
2017-12-11T07:18:18.046Z,0
2017-12-11T07:19:26.869Z,0
2017-12-11T07:20:35.962Z,0
2017-12-11T07:21:44.784Z,0
2017-12-11T07:22:53.606Z,5
2017-12-11T07:24:02.527Z,5
2017-12-11T07:25:11.347Z,5
2017-12-11T07:26:20.170Z,5
2017-12-11T07:27:28.991Z,5
2017-12-11T07:28:37.813Z,5
2017-12-11T07:29:46.789Z,5
2017-12-11T07:30:55.610Z,5
2017-12-11T07:32:04.430Z,10
2017-12-11T07:33:13.252Z,10
2017-12-11T07:34:22.075Z,10
2017-12-11T07:35:30.999Z,10
2017-12-11T07:36:39.823Z,10
2017-12-11T07:37:48.645Z,10
2017-12-11T07:38:57.469Z,15
2017-12-11T07:40:06.294Z,15
2017-12-11T07:41:15.416Z,15
2017-12-11T07:42:24.238Z,15
2017-12-11T07:43:33.063Z,20
2017-12-11T07:44:41.884Z,20
2017-12-11T07:45:50.707Z,20
2017-12-11T07:46:59.833Z,20
2017-12-11T07:48:08.928Z,20
2017-12-11T07:49:18.024Z,25
2017-12-11T07:50:26.849Z,25
2017-12-11T07:51:35.670Z,25
2017-12-11T07:52:44.642Z,25
2017-12-11T07:53:53.464Z,25
2017-12-11T07:55:02.286Z,30
2017-12-11T07:56:11.382Z,30
2017-12-11T07:57:20.206Z,30
2017-12-11T07:58:29.179Z,30
2017-12-11T07:59:38.000Z,30
2017-12-11T08:00:46.824Z,30
2017-12-11T08:01:55.645Z,35
2017-12-11T08:03:04.466Z,35
2017-12-11T08:04:13.439Z,35
2017-12-11T08:05:22.537Z,30
2017-12-11T08:06:31.361Z,30
2017-12-11T08:07:40.187Z,35
2017-12-11T08:08:49.009Z,35
2017-12-11T08:09:58.258Z,40
2017-12-11T08:11:07.079Z,40
2017-12-11T08:12:15.903Z,40
2017-12-11T08:13:24.726Z,40
2017-12-11T08:14:33.552Z,40
2017-12-11T08:15:42.700Z,40
2017-12-11T08:16:51.522Z,45
2017-12-11T08:18:00.344Z,45
2017-12-11T08:19:09.167Z,45
2017-12-11T08:20:17.991Z,45
2017-12-11T08:21:27.489Z,50
2017-12-11T08:22:36.309Z,50
2017-12-11T08:23:45.406Z,50
2017-12-11T08:24:54.428Z,50
2017-12-11T08:26:03.531Z,50
2017-12-11T08:27:12.728Z,50
2017-12-11T08:28:21.552Z,50
2017-12-11T08:29:30.375Z,50
2017-12-11T08:30:39.471Z,50
2017-12-11T08:31:48.296Z,50
2017-12-11T08:32:57.220Z,55
2017-12-11T08:34:06.054Z,55
2017-12-11T08:35:15.155Z,55
2017-12-11T08:36:23.976Z,55
2017-12-11T08:37:32.798Z,55
2017-12-11T08:38:41.771Z,55
2017-12-11T08:39:50.596Z,55
2017-12-11T08:40:59.418Z,55
2017-12-11T08:42:08.239Z,55
2017-12-11T08:43:17.065Z,55
2017-12-11T08:44:26.288Z,55
2017-12-11T08:45:35.109Z,55
2017-12-11T08:46:43.934Z,55
2017-12-11T08:47:52.758Z,55
2017-12-11T08:49:01.859Z,50
2017-12-11T08:50:10.936Z,50
2017-12-11T08:51:19.759Z,55
2017-12-11T08:52:28.584Z,55
2017-12-11T08:53:37.408Z,50
2017-12-11T08:54:46.229Z,55
2017-12-11T08:55:55.156Z,55
2017-12-11T08:57:04.264Z,55
2017-12-11T08:58:13.088Z,60
2017-12-11T08:59:21.910Z,60
2017-12-11T09:00:30.734Z,65
2017-12-11T09:01:39.660Z,65
2017-12-11T09:02:48.483Z,70
2017-12-11T09:03:57.307Z,70
2017-12-11T09:05:06.131Z,65
2017-12-11T09:06:14.953Z,65
2017-12-11T09:07:24.076Z,60
2017-12-11T09:08:32.901Z,65
2017-12-11T09:09:41.725Z,65
2017-12-11T09:10:50.549Z,65
2017-12-11T09:11:59.373Z,65
2017-12-11T09:13:08.498Z,70
2017-12-11T09:14:17.322Z,70
2017-12-11T09:15:26.423Z,75
2017-12-11T09:16:35.534Z,75
2017-12-11T09:17:44.458Z,75
2017-12-11T09:18:53.383Z,75
2017-12-11T09:20:02.209Z,80
2017-12-11T09:21:11.034Z,80
2017-12-11T09:22:19.856Z,85
2017-12-11T09:23:28.681Z,85
2017-12-11T09:24:37.655Z,85
2017-12-11T09:25:46.764Z,90
2017-12-11T09:26:55.588Z,90
2017-12-11T09:28:04.410Z,95
2017-12-11T09:29:13.234Z,95
2017-12-11T09:30:22.308Z,95
2017-12-11T09:31:31.129Z,95
2017-12-11T09:32:39.953Z,90
2017-12-11T09:33:48.810Z,90
2017-12-11T09:34:57.599Z,90
2017-12-11T09:36:06.424Z,90
2017-12-11T09:37:15.247Z,90
2017-12-11T09:38:24.071Z,95
2017-12-11T09:39:33.171Z,95
2017-12-11T09:40:42.272Z,95
2017-12-11T09:41:51.147Z,95
2017-12-11T09:42:59.971Z,90
2017-12-11T09:44:08.793Z,90
2017-12-11T09:45:17.618Z,95
2017-12-11T09:46:26.713Z,95
2017-12-11T09:47:35.688Z,100
2017-12-11T09:48:44.512Z,100
2017-12-11T09:49:53.334Z,100
2017-12-11T09:51:02.159Z,100
2017-12-11T09:52:10.981Z,95
2017-12-11T09:53:20.104Z,95
2017-12-11T09:54:28.930Z,95
2017-12-11T09:55:37.752Z,90
2017-12-11T09:56:46.577Z,90
2017-12-11T09:57:55.407Z,90
2017-12-11T09:59:04.509Z,90
2017-12-11T10:00:13.333Z,85
2017-12-11T10:01:22.157Z,85
2017-12-11T10:02:30.982Z,85
2017-12-11T10:03:39.809Z,85
2017-12-11T10:04:48.956Z,80
2017-12-11T10:05:57.780Z,75
2017-12-11T10:07:06.607Z,75
2017-12-11T10:08:15.428Z,75
2017-12-11T10:09:24.251Z,75
2017-12-11T10:10:33.496Z,80
2017-12-11T10:11:42.322Z,85
2017-12-11T10:12:51.420Z,90
2017-12-11T10:14:00.245Z,90
2017-12-11T10:15:09.346Z,90
2017-12-11T10:16:18.320Z,95
2017-12-11T10:17:27.146Z,100
2017-12-11T10:18:35.969Z,100
2017-12-11T10:19:44.791Z,95
2017-12-11T10:20:53.892Z,95
2017-12-11T10:22:02.866Z,95
2017-12-11T10:23:11.691Z,95
2017-12-11T10:24:20.516Z,95
2017-12-11T10:25:29.344Z,95
2017-12-11T10:26:38.167Z,95
2017-12-11T10:27:47.292Z,90
2017-12-11T10:28:56.117Z,90
2017-12-11T10:30:04.943Z,85
2017-12-11T10:31:13.766Z,85
2017-12-11T10:32:22.590Z,80
2017-12-11T10:33:31.465Z,80
2017-12-11T10:34:40.291Z,80
2017-12-11T10:35:49.110Z,80
2017-12-11T10:36:58.207Z,75
2017-12-11T10:38:07.030Z,75
2017-12-11T10:39:16.128Z,75
2017-12-11T10:40:24.951Z,70
2017-12-11T10:41:33.776Z,70
2017-12-11T10:42:42.598Z,70
2017-12-11T10:43:51.422Z,70
2017-12-11T10:45:00.345Z,75
2017-12-11T10:46:09.171Z,80
2017-12-11T10:47:17.994Z,85
2017-12-11T10:48:26.819Z,85
2017-12-11T10:49:35.644Z,90
2017-12-11T10:50:44.615Z,90
2017-12-11T10:51:53.439Z,90
2017-12-11T10:53:02.270Z,95
2017-12-11T10:54:11.089Z,95
2017-12-11T10:55:19.914Z,90
2017-12-11T10:56:28.789Z,90
2017-12-11T10:57:37.612Z,90
2017-12-11T10:58:46.435Z,90
2017-12-11T10:59:55.259Z,90
2017-12-11T11:01:04.358Z,90
2017-12-11T11:02:13.382Z,95
2017-12-11T11:03:22.201Z,90
2017-12-11T11:04:31.028Z,90
2017-12-11T11:05:40.126Z,90
2017-12-11T11:06:48.950Z,90
2017-12-11T11:07:57.877Z,90
2017-12-11T11:09:06.974Z,90
2017-12-11T11:10:15.798Z,90
2017-12-11T11:11:24.619Z,90
2017-12-11T11:12:33.444Z,85
2017-12-11T11:13:42.420Z,85
2017-12-11T11:14:51.528Z,85
2017-12-11T11:16:00.352Z,85
2017-12-11T11:17:09.176Z,85
2017-12-11T11:18:18.002Z,85
2017-12-11T11:19:26.926Z,80
2017-12-11T11:20:35.749Z,80
2017-12-11T11:21:44.573Z,80
2017-12-11T11:22:53.395Z,80
2017-12-11T11:24:02.493Z,80
2017-12-11T11:25:11.617Z,80
2017-12-11T11:26:20.442Z,80
2017-12-11T11:27:29.262Z,80
2017-12-11T11:28:38.086Z,80
2017-12-11T11:29:46.912Z,80
2017-12-11T11:30:55.887Z,80
2017-12-11T11:32:04.707Z,80
2017-12-11T11:33:13.531Z,80
2017-12-11T11:34:22.352Z,85
2017-12-11T11:35:31.176Z,85
2017-12-11T11:36:40.149Z,85
2017-12-11T11:37:48.974Z,85
2017-12-11T11:38:57.796Z,80
2017-12-11T11:40:06.894Z,80
2017-12-11T11:41:15.719Z,80
2017-12-11T11:42:24.592Z,80
2017-12-11T11:43:33.415Z,80
2017-12-11T11:44:42.239Z,80
2017-12-11T11:45:51.065Z,80
2017-12-11T11:46:59.892Z,80
2017-12-11T11:48:08.864Z,80
2017-12-11T11:49:17.688Z,80
2017-12-11T11:50:26.511Z,80
2017-12-11T11:51:35.615Z,80
2017-12-11T11:52:44.437Z,80
2017-12-11T11:53:53.308Z,80
2017-12-11T11:55:02.137Z,80
2017-12-11T11:56:10.958Z,80
2017-12-11T11:57:19.784Z,80
2017-12-11T11:58:28.606Z,80
2017-12-11T11:59:37.533Z,80
2017-12-11T12:00:46.356Z,80
2017-12-11T12:01:55.178Z,80
2017-12-11T12:03:04.003Z,80
2017-12-11T12:04:12.825Z,80
2017-12-11T12:05:21.801Z,80
2017-12-11T12:06:30.623Z,80
2017-12-11T12:07:39.448Z,80
2017-12-11T12:08:48.271Z,80
2017-12-11T12:09:57.094Z,80
2017-12-11T12:11:05.923Z,80
2017-12-11T12:12:14.742Z,80
2017-12-11T12:13:23.567Z,85
2017-12-11T12:14:32.397Z,85
2017-12-11T12:15:41.215Z,80
2017-12-11T12:16:50.089Z,85
2017-12-11T12:17:58.915Z,85
2017-12-11T12:19:07.739Z,85
2017-12-11T12:20:16.562Z,90
2017-12-11T12:21:25.385Z,90
2017-12-11T12:22:34.308Z,90
2017-12-11T12:23:43.130Z,90
2017-12-11T12:24:51.953Z,90
2017-12-11T12:26:00.778Z,90
2017-12-11T12:27:09.600Z,90
2017-12-11T12:28:18.526Z,90
2017-12-11T12:29:27.348Z,90
2017-12-11T12:30:36.176Z,90
2017-12-11T12:31:45.272Z,90
2017-12-11T12:32:54.098Z,85
2017-12-11T12:34:03.020Z,85
2017-12-11T12:35:12.120Z,85
2017-12-11T12:36:20.947Z,80
2017-12-11T12:37:29.771Z,80
2017-12-11T12:38:38.595Z,80
2017-12-11T12:39:47.839Z,80
2017-12-11T12:40:56.663Z,75
2017-12-11T12:42:05.488Z,75
2017-12-11T12:43:14.312Z,75
2017-12-11T12:44:23.134Z,70
2017-12-11T12:45:32.257Z,70
2017-12-11T12:46:41.356Z,65
2017-12-11T12:47:50.454Z,65
2017-12-11T12:48:59.279Z,60
2017-12-11T12:50:08.378Z,60
2017-12-11T12:51:17.452Z,60
2017-12-11T12:52:26.277Z,55
2017-12-11T12:53:35.104Z,55
2017-12-11T12:54:43.927Z,55
2017-12-11T12:55:52.752Z,55
2017-12-11T12:57:01.728Z,55
2017-12-11T12:58:10.841Z,55
2017-12-11T12:59:19.944Z,55
2017-12-11T13:00:28.833Z,55
2017-12-11T13:01:37.592Z,55
2017-12-11T13:02:46.568Z,55
2017-12-11T13:03:55.394Z,55
2017-12-11T13:05:04.218Z,55
2017-12-11T13:06:13.044Z,55
2017-12-11T13:07:21.871Z,55
2017-12-11T13:08:30.895Z,55
2017-12-11T13:09:39.746Z,50
2017-12-11T13:10:48.545Z,50
2017-12-11T13:11:57.373Z,50
2017-12-11T13:13:06.746Z,50
2017-12-11T13:14:15.735Z,50
2017-12-11T13:15:24.560Z,50
2017-12-11T13:16:33.385Z,45
2017-12-11T13:17:42.482Z,50
2017-12-11T13:18:51.309Z,50
2017-12-11T13:20:00.132Z,50
2017-12-11T13:21:08.958Z,45
2017-12-11T13:22:17.785Z,50
2017-12-11T13:23:26.884Z,50
2017-12-11T13:24:35.705Z,50
2017-12-11T13:25:44.730Z,55
2017-12-11T13:26:53.553Z,55
2017-12-11T13:28:02.376Z,55
2017-12-11T13:29:11.750Z,60
2017-12-11T13:30:20.576Z,60
2017-12-11T13:31:29.804Z,60
2017-12-11T13:32:38.630Z,60
2017-12-11T13:33:47.453Z,65
2017-12-11T13:34:56.277Z,65
2017-12-11T13:36:05.103Z,70
2017-12-11T13:37:14.228Z,70
2017-12-11T13:38:23.049Z,70
2017-12-11T13:39:31.878Z,70
2017-12-11T13:40:40.979Z,65
2017-12-11T13:41:49.804Z,60
2017-12-11T13:42:58.829Z,55
2017-12-11T13:44:07.928Z,55
2017-12-11T13:45:16.752Z,55
2017-12-11T13:46:25.575Z,50
2017-12-11T13:47:34.401Z,45
2017-12-11T13:48:43.324Z,50
2017-12-11T13:49:52.148Z,40
2017-12-11T13:51:00.978Z,45
2017-12-11T13:52:09.798Z,40
2017-12-11T13:53:18.625Z,40
2017-12-11T13:54:27.599Z,40
2017-12-11T13:55:36.425Z,40
2017-12-11T13:56:45.265Z,40
2017-12-11T13:57:54.088Z,45
2017-12-11T13:59:02.914Z,45
2017-12-11T14:00:11.788Z,45
2017-12-11T14:01:20.611Z,40
2017-12-11T14:02:29.434Z,40
2017-12-11T14:03:38.265Z,40
2017-12-11T14:04:47.089Z,35
2017-12-11T14:05:56.065Z,35
2017-12-11T14:07:04.888Z,30
2017-12-11T14:08:13.713Z,30
2017-12-11T14:09:22.536Z,25
2017-12-11T14:10:31.362Z,25
2017-12-11T14:11:40.187Z,20
2017-12-11T14:12:49.012Z,20
2017-12-11T14:13:57.840Z,20
2017-12-11T14:15:06.659Z,20
2017-12-11T14:16:15.484Z,15
2017-12-11T14:17:24.636Z,15
2017-12-11T14:18:33.742Z,15
2017-12-11T14:19:42.567Z,15
2017-12-11T14:20:51.387Z,10
2017-12-11T14:22:00.214Z,10
2017-12-11T14:23:09.559Z,10
2017-12-11T14:24:18.385Z,10
2017-12-11T14:25:27.207Z,5
2017-12-11T14:26:36.307Z,5
2017-12-11T14:27:45.410Z,5
2017-12-11T14:28:54.435Z,5
2017-12-11T14:30:03.548Z,5
2017-12-11T14:31:12.368Z,5
2017-12-11T14:32:21.187Z,5
2017-12-11T14:33:30.010Z,5
2017-12-11T14:34:38.832Z,5
2017-12-11T14:35:47.930Z,5
2017-12-11T14:36:56.756Z,5
2017-12-11T14:38:05.852Z,5
2017-12-11T14:39:14.675Z,5
2017-12-11T14:40:23.799Z,5
2017-12-11T14:41:32.626Z,5
2017-12-11T14:42:41.449Z,5
2017-12-11T14:43:50.272Z,5
2017-12-11T14:44:59.095Z,5
2017-12-11T14:46:07.923Z,5
2017-12-11T14:47:16.741Z,5
2017-12-11T14:48:25.564Z,5
2017-12-11T14:49:34.388Z,5
2017-12-11T14:50:43.213Z,5
2017-12-11T14:51:52.035Z,5
2017-12-11T14:53:00.859Z,0
2017-12-11T14:54:09.685Z,0
2017-12-11T14:55:18.507Z,0
2017-12-11T14:56:27.335Z,0
2017-12-11T14:57:36.202Z,0
2017-12-11T14:58:45.025Z,0
2017-12-11T14:59:53.848Z,0
2017-12-11T15:01:02.947Z,0
2017-12-11T15:02:11.773Z,0
2017-12-11T15:03:20.644Z,0
2017-12-11T15:04:29.477Z,0
2017-12-11T15:05:38.291Z,0
2017-12-11T15:06:47.113Z,0
2017-12-11T15:07:55.936Z,0
2017-12-11T15:09:05.288Z,0
2017-12-11T15:10:14.381Z,0
2017-12-11T15:11:23.204Z,0
2017-12-11T15:12:32.037Z,0
2017-12-11T15:13:40.861Z,0
2017-12-11T15:14:49.685Z,0
2017-12-11T15:15:58.787Z,0
2017-12-11T15:17:07.628Z,0
2017-12-11T15:18:16.450Z,0
2017-12-11T15:19:25.282Z,0
2017-12-11T15:20:34.672Z,0
2017-12-11T15:21:43.800Z,0
2017-12-11T15:22:52.789Z,0
2017-12-11T15:24:01.873Z,0
2017-12-11T15:25:11.114Z,0
2017-12-11T15:26:19.938Z,0
2017-12-11T15:27:28.760Z,0
2017-12-11T15:28:37.585Z,0
2017-12-11T15:29:46.409Z,0
2017-12-11T15:30:55.234Z,0
2017-12-11T15:32:04.072Z,0
2017-12-11T15:33:12.894Z,0
2017-12-11T15:34:21.716Z,0
2017-12-11T15:35:30.640Z,0
2017-12-11T15:36:39.737Z,0
2017-12-11T15:37:48.559Z,0
2017-12-11T15:38:57.382Z,0
2017-12-11T15:40:06.205Z,0
2017-12-11T15:41:15.029Z,0
2017-12-11T15:42:23.850Z,0
2017-12-11T15:43:32.672Z,0
2017-12-11T15:44:41.494Z,0
2017-12-11T15:45:50.618Z,0
2017-12-11T15:46:59.440Z,0
2017-12-11T15:48:08.264Z,0
2017-12-11T15:49:17.089Z,0
2017-12-11T15:50:26.189Z,0
2017-12-11T15:51:35.012Z,0
2017-12-11T15:52:43.834Z,0
2017-12-11T15:53:52.658Z,0
2017-12-11T15:55:01.484Z,0
2017-12-11T15:56:10.309Z,0
2017-12-11T15:57:19.565Z,0
2017-12-11T15:58:28.387Z,0
2017-12-11T15:59:37.210Z,0
2017-12-11T16:00:46.033Z,0
2017-12-11T16:01:54.867Z,0
2017-12-11T16:03:03.800Z,0
2017-12-11T16:04:12.616Z,0
2017-12-11T16:05:21.445Z,0
2017-12-11T16:06:30.269Z,0
2017-12-11T16:07:39.092Z,0
2017-12-11T16:08:48.066Z,0
2017-12-11T16:09:56.890Z,0
2017-12-11T16:11:05.714Z,0
2017-12-11T16:12:14.821Z,0
2017-12-11T16:13:23.645Z,0
2017-12-11T16:14:32.519Z,0
2017-12-11T16:15:41.340Z,0
2017-12-11T16:16:50.177Z,0
2017-12-11T16:17:59.009Z,0
2017-12-11T16:19:07.836Z,0
2017-12-11T16:20:16.708Z,0
2017-12-11T16:21:25.532Z,0
2017-12-11T16:22:34.360Z,0
2017-12-11T16:23:43.183Z,0
2017-12-11T16:24:52.007Z,0
2017-12-11T16:26:00.833Z,0
2017-12-11T16:27:09.652Z,0
2017-12-11T16:28:18.475Z,0
2017-12-11T16:29:27.297Z,0
2017-12-11T16:30:36.128Z,0
2017-12-11T16:31:45.001Z,0
2017-12-11T16:32:53.823Z,0
2017-12-11T16:34:02.647Z,0
2017-12-11T16:35:11.469Z,0
2017-12-11T16:36:20.591Z,0
2017-12-11T16:37:29.416Z,0
2017-12-11T16:38:38.514Z,0
2017-12-11T16:39:47.391Z,0
2017-12-11T16:40:56.163Z,0
2017-12-11T16:42:04.991Z,0
2017-12-11T16:43:13.812Z,0